createdAt,value
2023-03-02T00:00:59.483Z,22
2023-03-02T00:05:58.541Z,68
2023-03-02T00:10:58.816Z,68
2023-03-02T00:15:59.327Z,338
2023-03-02T00:20:58.545Z,338
2023-03-02T00:25:58.898Z,45
2023-03-02T00:30:59.486Z,45
2023-03-02T00:35:58.746Z,22
2023-03-02T00:40:58.768Z,22
2023-03-02T00:45:58.953Z,90
2023-03-02T00:50:59.181Z,90
2023-03-02T00:55:59.421Z,45
2023-03-02T01:00:59.569Z,45
2023-03-02T01:05:59.224Z,22
2023-03-02T01:10:59.426Z,22
2023-03-02T01:15:58.667Z,90
2023-03-02T01:20:58.864Z,90
2023-03-02T01:25:59.094Z,68
2023-03-02T01:30:59.365Z,68
2023-03-02T01:35:59.762Z,338
2023-03-02T01:40:59.655Z,338
2023-03-02T01:45:58.938Z,90
2023-03-02T01:50:59.204Z,90
2023-03-02T01:55:59.595Z,90
2023-03-02T02:00:59.094Z,90
2023-03-02T02:05:59.349Z,0
2023-03-02T02:10:59.670Z,0
2023-03-02T02:15:59.009Z,0
2023-03-02T02:20:59.441Z,0
2023-03-02T02:25:58.680Z,22
2023-03-02T02:30:59.068Z,22
2023-03-02T02:35:59.271Z,22
2023-03-02T02:40:59.408Z,22
2023-03-02T02:45:58.827Z,22
2023-03-02T02:50:59.218Z,22
2023-03-02T02:55:59.005Z,90
2023-03-02T03:00:59.454Z,90
2023-03-02T03:05:58.813Z,45
2023-03-02T03:10:59.566Z,45
2023-03-02T03:15:59.415Z,22
2023-03-02T03:20:59.139Z,22
2023-03-02T03:25:59.438Z,22
2023-03-02T03:30:59.152Z,22
2023-03-02T03:35:59.469Z,90
2023-03-02T03:40:58.757Z,90
2023-03-02T03:45:59.376Z,90
2023-03-02T03:50:58.770Z,90
2023-03-02T03:55:59.460Z,112
2023-03-02T04:00:59.308Z,112
2023-03-02T04:05:59.185Z,112
2023-03-02T04:10:59.435Z,112
2023-03-02T04:15:59.257Z,112
2023-03-02T04:20:59.136Z,112
2023-03-02T04:25:59.322Z,112
2023-03-02T04:30:59.822Z,112
2023-03-02T04:35:59.037Z,112
2023-03-02T04:40:59.384Z,112
2023-03-02T04:45:59.868Z,112
2023-03-02T04:50:59.144Z,112
2023-03-02T04:55:58.920Z,112
2023-03-02T05:00:59.158Z,112
2023-03-02T05:05:59.498Z,112
2023-03-02T05:10:59.874Z,112
2023-03-02T05:15:59.104Z,112
2023-03-02T08:45:59.012Z,0
2023-03-02T08:50:59.465Z,0
2023-03-02T08:55:59.719Z,22
2023-03-02T09:00:59.440Z,22
2023-03-02T09:05:59.764Z,22
2023-03-02T09:10:59.185Z,22
2023-03-02T09:15:59.522Z,22
2023-03-02T09:20:58.971Z,22
2023-03-02T09:25:59.189Z,22
2023-03-02T09:30:59.406Z,22
2023-03-02T09:35:59.590Z,22
2023-03-02T09:40:59.120Z,22
2023-03-02T09:45:59.461Z,22
2023-03-02T09:50:59.726Z,22
2023-03-02T09:55:59.059Z,22
2023-03-02T10:00:59.326Z,22
2023-03-02T10:05:59.769Z,68
2023-03-02T10:10:59.240Z,68
2023-03-02T10:15:59.877Z,90
2023-03-02T10:20:59.113Z,90
2023-03-02T10:25:59.335Z,292
2023-03-02T10:30:59.868Z,292
2023-03-02T10:35:59.245Z,292
2023-03-02T10:40:59.569Z,292
2023-03-02T10:45:59.896Z,338
2023-03-02T10:50:59.871Z,338
2023-03-02T10:55:59.093Z,338
2023-03-02T11:00:59.489Z,338
2023-03-02T11:05:59.730Z,338
2023-03-02T11:11:01.913Z,338
2023-03-02T11:15:59.126Z,22
2023-03-02T11:20:59.365Z,22
2023-03-02T11:25:59.438Z,338
2023-03-02T11:30:59.663Z,338
2023-03-02T11:35:59.856Z,315
2023-03-02T11:40:59.216Z,315
2023-03-02T11:45:59.333Z,338
2023-03-02T11:50:59.904Z,338
2023-03-02T11:55:59.066Z,22
2023-03-02T12:00:59.342Z,22
2023-03-02T12:05:59.611Z,90
2023-03-02T12:10:59.935Z,90
2023-03-02T12:15:59.207Z,22
2023-03-02T12:20:59.288Z,22
2023-03-02T12:25:59.486Z,0
2023-03-02T12:30:59.711Z,0
2023-03-02T12:35:59.018Z,315
2023-03-02T12:40:59.220Z,315
2023-03-02T12:45:59.605Z,22
2023-03-02T12:51:00.079Z,22
2023-03-02T12:55:59.356Z,68
2023-03-02T13:00:59.837Z,68
2023-03-02T13:05:59.117Z,90
2023-03-02T13:10:59.535Z,90
2023-03-02T13:15:59.631Z,22
2023-03-02T13:20:59.890Z,22
2023-03-02T13:25:59.061Z,45
2023-03-02T13:30:59.642Z,45
2023-03-02T13:35:59.966Z,112
2023-03-02T13:40:59.242Z,112
2023-03-02T13:45:59.674Z,135
2023-03-02T13:50:59.889Z,135
2023-03-02T13:55:59.065Z,22
2023-03-02T14:00:59.524Z,22
2023-03-02T14:06:00.168Z,315
2023-03-02T14:10:59.529Z,315
2023-03-02T14:16:00.294Z,68
2023-03-02T14:20:59.969Z,68
2023-03-02T14:25:59.125Z,68
2023-03-02T14:31:00.057Z,68
2023-03-02T14:35:59.521Z,0
2023-03-02T14:40:59.879Z,0
2023-03-02T14:45:59.232Z,315
2023-03-02T14:51:01.344Z,315
2023-03-02T14:55:59.630Z,338
2023-03-02T15:00:59.900Z,338
2023-03-02T15:06:02.311Z,338
2023-03-02T15:10:59.588Z,338
2023-03-02T15:15:59.925Z,315
2023-03-02T15:20:59.388Z,315
2023-03-02T15:25:59.673Z,22
2023-03-02T15:30:59.307Z,22
2023-03-02T15:35:59.941Z,90
2023-03-02T15:41:00.044Z,90
2023-03-02T15:45:59.993Z,90
2023-03-02T15:50:59.474Z,90
2023-03-02T15:55:59.937Z,45
2023-03-02T16:01:00.258Z,45
2023-03-02T16:05:59.781Z,22
2023-03-02T16:11:00.263Z,22
2023-03-02T16:15:59.504Z,45
2023-03-02T16:20:59.805Z,45
2023-03-02T16:26:00.040Z,68
2023-03-02T16:30:59.307Z,68
2023-03-02T16:35:59.653Z,45
2023-03-02T16:40:59.410Z,45
2023-03-02T16:45:59.715Z,68
2023-03-02T16:50:59.998Z,68
2023-03-02T16:55:59.182Z,22
2023-03-02T17:00:59.776Z,22
2023-03-02T17:05:59.139Z,90
2023-03-02T17:10:59.442Z,90
2023-03-02T17:15:59.819Z,22
2023-03-02T17:21:00.275Z,22
2023-03-02T17:25:59.535Z,22
2023-03-02T17:30:59.810Z,22
2023-03-02T17:36:00.005Z,22
2023-03-02T17:40:59.365Z,22
2023-03-02T17:45:59.623Z,22
2023-03-02T17:50:59.871Z,22
2023-03-02T17:56:00.033Z,22
2023-03-02T18:00:59.719Z,22
2023-03-02T18:05:59.857Z,22
2023-03-02T18:11:00.252Z,22
2023-03-02T18:15:59.698Z,22
2023-03-02T18:20:59.889Z,22
2023-03-02T18:26:00.138Z,22
2023-03-02T18:30:59.458Z,22
2023-03-02T18:35:59.707Z,22
2023-03-02T18:40:59.355Z,22
2023-03-02T18:45:59.610Z,22
2023-03-02T18:50:59.954Z,22
2023-03-02T18:56:00.256Z,22
2023-03-02T19:00:59.691Z,22
2023-03-02T19:05:59.911Z,22
2023-03-02T19:11:00.135Z,22
2023-03-02T19:15:59.332Z,22
2023-03-02T19:20:59.558Z,22
2023-03-02T19:25:59.790Z,22
2023-03-02T19:30:59.988Z,22
2023-03-02T19:36:00.385Z,22
2023-03-02T19:41:00.192Z,22
2023-03-02T19:45:59.498Z,22
2023-03-02T19:50:59.817Z,22
2023-03-02T19:55:59.993Z,22
2023-03-02T20:01:00.356Z,22
2023-03-02T20:05:59.697Z,22
2023-03-02T20:10:59.969Z,22
2023-03-02T20:16:00.096Z,22
2023-03-02T20:20:59.347Z,22
2023-03-02T20:25:59.610Z,22
2023-03-02T20:30:59.871Z,22
2023-03-02T20:35:59.790Z,22
2023-03-02T20:40:59.813Z,22
2023-03-02T20:46:00.220Z,22
2023-03-02T20:50:59.424Z,22
2023-03-02T20:55:59.788Z,22
2023-03-02T21:01:00.114Z,22
2023-03-02T21:05:59.559Z,22
2023-03-02T21:11:00.297Z,22
2023-03-02T21:15:59.746Z,22
2023-03-02T21:21:00.238Z,22
2023-03-02T21:25:59.499Z,22
2023-03-02T21:31:00.009Z,22
2023-03-02T21:36:00.420Z,22
2023-03-02T21:41:00.045Z,22
2023-03-02T21:45:59.935Z,22
2023-03-02T21:50:59.371Z,22
2023-03-02T21:56:00.039Z,22
2023-03-02T22:00:59.856Z,22
2023-03-02T22:06:00.053Z,22
2023-03-02T22:10:59.517Z,22
2023-03-02T22:15:59.849Z,22
2023-03-02T22:21:00.159Z,22
2023-03-02T22:26:00.387Z,22
2023-03-02T22:30:59.919Z,22
2023-03-02T22:36:00.378Z,22
2023-03-02T22:40:59.430Z,22
2023-03-02T22:45:59.656Z,22
2023-03-02T22:50:59.947Z,22
2023-03-02T22:56:00.177Z,22
2023-03-02T23:00:59.568Z,22
2023-03-02T23:06:00.294Z,22
2023-03-02T23:10:59.630Z,22
2023-03-02T23:15:59.920Z,22
2023-03-02T23:21:00.243Z,22
2023-03-02T23:25:59.505Z,292
2023-03-02T23:30:59.753Z,292
2023-03-02T23:35:59.999Z,270
2023-03-02T23:40:59.810Z,270
2023-03-02T23:46:00.083Z,270
2023-03-02T23:56:00.248Z,270
